sensor_id;sensor_type;location;lat;lon;timestamp;pressure;altitude;pressure_sealevel;temperature;humidity
17615;BME280;8926;49.720;6.576;2023-04-26T00:01:10;99970.75;;;6.34;73.33
17615;BME280;8926;49.720;6.576;2023-04-26T00:03:36;99966.63;;;6.28;73.65
17615;BME280;8926;49.720;6.576;2023-04-26T00:06:01;99969.22;;;6.28;73.45
17615;BME280;8926;49.720;6.576;2023-04-26T00:08:33;99979.56;;;6.30;73.42
17615;BME280;8926;49.720;6.576;2023-04-26T00:10:58;99971.03;;;6.26;73.59
17615;BME280;8926;49.720;6.576;2023-04-26T00:13:24;99976.50;;;6.19;72.47
17615;BME280;8926;49.720;6.576;2023-04-26T00:15:49;99976.91;;;6.06;73.35
17615;BME280;8926;49.720;6.576;2023-04-26T00:18:15;99976.31;;;5.98;74.29
17615;BME280;8926;49.720;6.576;2023-04-26T00:20:41;99980.63;;;5.99;73.71
17615;BME280;8926;49.720;6.576;2023-04-26T00:23:06;99985.81;;;5.99;73.28
17615;BME280;8926;49.720;6.576;2023-04-26T00:25:34;99979.84;;;5.97;73.55
17615;BME280;8926;49.720;6.576;2023-04-26T00:28:00;99992.91;;;5.94;73.00
17615;BME280;8926;49.720;6.576;2023-04-26T00:30:26;99977.63;;;5.85;73.35
17615;BME280;8926;49.720;6.576;2023-04-26T00:32:51;99982.91;;;5.82;73.87
17615;BME280;8926;49.720;6.576;2023-04-26T00:35:16;99980.47;;;5.77;73.32
17615;BME280;8926;49.720;6.576;2023-04-26T00:37:42;99971.03;;;5.75;73.46
17615;BME280;8926;49.720;6.576;2023-04-26T00:40:08;99965.97;;;5.72;73.75
17615;BME280;8926;49.720;6.576;2023-04-26T00:42:33;99966.09;;;5.69;74.01
17615;BME280;8926;49.720;6.576;2023-04-26T00:44:58;99963.50;;;5.69;73.53
17615;BME280;8926;49.720;6.576;2023-04-26T00:47:24;99966.34;;;5.61;74.22
17615;BME280;8926;49.720;6.576;2023-04-26T00:49:50;99964.59;;;5.62;74.15
17615;BME280;8926;49.720;6.576;2023-04-26T00:52:15;99956.81;;;5.62;74.40
17615;BME280;8926;49.720;6.576;2023-04-26T00:54:41;99967.38;;;5.56;74.51
17615;BME280;8926;49.720;6.576;2023-04-26T00:57:06;99973.34;;;5.58;74.18
17615;BME280;8926;49.720;6.576;2023-04-26T00:59:34;99971.47;;;5.63;73.95
17615;BME280;8926;49.720;6.576;2023-04-26T01:02:02;99973.16;;;5.64;73.45
17615;BME280;8926;49.720;6.576;2023-04-26T01:04:27;99965.44;;;5.62;74.24
17615;BME280;8926;49.720;6.576;2023-04-26T01:06:54;99975.34;;;5.50;74.30
17615;BME280;8926;49.720;6.576;2023-04-26T01:09:20;99972.97;;;5.43;75.22
17615;BME280;8926;49.720;6.576;2023-04-26T01:11:45;99973.88;;;5.42;75.39
17615;BME280;8926;49.720;6.576;2023-04-26T01:14:13;99981.69;;;5.41;74.84
17615;BME280;8926;49.720;6.576;2023-04-26T01:16:39;99979.31;;;5.33;75.48
17615;BME280;8926;49.720;6.576;2023-04-26T01:19:09;99982.72;;;5.35;74.81
17615;BME280;8926;49.720;6.576;2023-04-26T01:21:36;99982.81;;;5.32;75.86
17615;BME280;8926;49.720;6.576;2023-04-26T01:24:02;99988.97;;;5.28;76.49
17615;BME280;8926;49.720;6.576;2023-04-26T01:26:27;99981.22;;;5.28;76.16
17615;BME280;8926;49.720;6.576;2023-04-26T01:28:53;99969.06;;;5.30;75.24
17615;BME280;8926;49.720;6.576;2023-04-26T01:31:18;99972.44;;;5.32;75.75
17615;BME280;8926;49.720;6.576;2023-04-26T01:33:43;99970.75;;;5.31;75.41
17615;BME280;8926;49.720;6.576;2023-04-26T01:36:09;99969.16;;;5.27;75.10
17615;BME280;8926;49.720;6.576;2023-04-26T01:38:37;99967.56;;;5.23;75.46
17615;BME280;8926;49.720;6.576;2023-04-26T01:41:03;99972.72;;;5.23;76.02
17615;BME280;8926;49.720;6.576;2023-04-26T01:43:28;99974.44;;;5.24;75.99
17615;BME280;8926;49.720;6.576;2023-04-26T01:45:54;99972.81;;;5.20;75.48
17615;BME280;8926;49.720;6.576;2023-04-26T01:48:19;99975.41;;;5.20;75.77
17615;BME280;8926;49.720;6.576;2023-04-26T01:50:44;99984.03;;;5.21;74.96
17615;BME280;8926;49.720;6.576;2023-04-26T01:53:10;99980.00;;;5.12;75.96
17615;BME280;8926;49.720;6.576;2023-04-26T01:55:35;99974.91;;;5.09;76.59
17615;BME280;8926;49.720;6.576;2023-04-26T01:58:01;99975.00;;;5.06;75.92
17615;BME280;8926;49.720;6.576;2023-04-26T02:00:28;99975.84;;;5.06;76.23
17615;BME280;8926;49.720;6.576;2023-04-26T02:02:56;99965.41;;;5.09;76.77
17615;BME280;8926;49.720;6.576;2023-04-26T02:05:22;99969.91;;;5.03;76.04
17615;BME280;8926;49.720;6.576;2023-04-26T02:07:49;99970.13;;;4.95;76.68
17615;BME280;8926;49.720;6.576;2023-04-26T02:10:14;99969.53;;;4.87;77.21
17615;BME280;8926;49.720;6.576;2023-04-26T02:12:39;99974.81;;;4.84;76.95
17615;BME280;8926;49.720;6.576;2023-04-26T02:15:05;99973.16;;;4.82;77.34
17615;BME280;8926;49.720;6.576;2023-04-26T02:17:32;99979.31;;;4.77;76.94
17615;BME280;8926;49.720;6.576;2023-04-26T02:19:57;99976.00;;;4.72;77.26
17615;BME280;8926;49.720;6.576;2023-04-26T02:22:23;99977.69;;;4.73;76.74
17615;BME280;8926;49.720;6.576;2023-04-26T02:24:50;99981.09;;;4.75;75.88
17615;BME280;8926;49.720;6.576;2023-04-26T02:27:16;99977.63;;;4.76;76.73
17615;BME280;8926;49.720;6.576;2023-04-26T02:29:41;99977.53;;;4.80;75.78
17615;BME280;8926;49.720;6.576;2023-04-26T02:32:07;99975.75;;;4.82;75.76
17615;BME280;8926;49.720;6.576;2023-04-26T02:34:32;99967.81;;;4.88;75.76
17615;BME280;8926;49.720;6.576;2023-04-26T02:36:58;99975.47;;;4.91;75.27
17615;BME280;8926;49.720;6.576;2023-04-26T02:39:23;99971.28;;;4.87;74.86
17615;BME280;8926;49.720;6.576;2023-04-26T02:41:48;99969.59;;;4.86;74.61
17615;BME280;8926;49.720;6.576;2023-04-26T02:44:15;99980.88;;;4.83;75.63
17615;BME280;8926;49.720;6.576;2023-04-26T02:46:40;99977.53;;;4.80;76.78
17615;BME280;8926;49.720;6.576;2023-04-26T02:49:06;99972.63;;;4.70;76.19
17615;BME280;8926;49.720;6.576;2023-04-26T02:51:31;99975.25;;;4.69;76.28
17615;BME280;8926;49.720;6.576;2023-04-26T02:53:57;99973.53;;;4.68;76.39
17615;BME280;8926;49.720;6.576;2023-04-26T02:56:23;99970.34;;;4.60;76.21
17615;BME280;8926;49.720;6.576;2023-04-26T02:58:48;99979.09;;;4.56;75.51
17615;BME280;8926;49.720;6.576;2023-04-26T03:01:14;99971.31;;;4.56;75.95
17615;BME280;8926;49.720;6.576;2023-04-26T03:03:39;99972.22;;;4.55;76.15
17615;BME280;8926;49.720;6.576;2023-04-26T03:06:05;99963.78;;;4.48;76.10
17615;BME280;8926;49.720;6.576;2023-04-26T03:08:30;99957.78;;;4.46;76.31
17615;BME280;8926;49.720;6.576;2023-04-26T03:10:56;99957.72;;;4.49;76.77
17615;BME280;8926;49.720;6.576;2023-04-26T03:13:22;99951.69;;;4.49;76.11
17615;BME280;8926;49.720;6.576;2023-04-26T03:15:47;99947.44;;;4.46;75.76
17615;BME280;8926;49.720;6.576;2023-04-26T03:18:14;99951.00;;;4.42;76.41
17615;BME280;8926;49.720;6.576;2023-04-26T03:20:40;99951.00;;;4.42;76.63
17615;BME280;8926;49.720;6.576;2023-04-26T03:23:06;99948.59;;;4.37;76.54
17615;BME280;8926;49.720;6.576;2023-04-26T03:25:32;99952.63;;;4.46;76.00
17615;BME280;8926;49.720;6.576;2023-04-26T03:27:57;99947.41;;;4.48;76.63
17615;BME280;8926;49.720;6.576;2023-04-26T03:30:23;99944.75;;;4.51;76.74
17615;BME280;8926;49.720;6.576;2023-04-26T03:32:48;99952.53;;;4.49;77.21
17615;BME280;8926;49.720;6.576;2023-04-26T03:35:16;99952.47;;;4.52;76.81
17615;BME280;8926;49.720;6.576;2023-04-26T03:37:43;99952.53;;;4.49;76.14
17615;BME280;8926;49.720;6.576;2023-04-26T03:40:09;99956.19;;;4.42;76.68
17615;BME280;8926;49.720;6.576;2023-04-26T03:42:35;99960.66;;;4.37;76.14
17615;BME280;8926;49.720;6.576;2023-04-26T03:45:02;99953.06;;;4.31;76.81
17615;BME280;8926;49.720;6.576;2023-04-26T03:47:29;99945.34;;;4.29;77.14
17615;BME280;8926;49.720;6.576;2023-04-26T03:49:54;99944.44;;;4.32;76.47
17615;BME280;8926;49.720;6.576;2023-04-26T03:52:20;99947.13;;;4.27;76.35
17615;BME280;8926;49.720;6.576;2023-04-26T03:54:45;99947.38;;;4.18;77.41
17615;BME280;8926;49.720;6.576;2023-04-26T03:57:10;99958.69;;;4.16;77.29
17615;BME280;8926;49.720;6.576;2023-04-26T03:59:36;99948.34;;;4.16;76.49
17615;BME280;8926;49.720;6.576;2023-04-26T04:02:02;99945.78;;;4.14;77.85
17615;BME280;8926;49.720;6.576;2023-04-26T04:04:27;99947.34;;;4.20;77.32
17615;BME280;8926;49.720;6.576;2023-04-26T04:06:52;99952.34;;;4.26;77.38
17615;BME280;8926;49.720;6.576;2023-04-26T04:09:18;99948.78;;;4.30;77.16
17615;BME280;8926;49.720;6.576;2023-04-26T04:11:43;99958.97;;;4.36;77.55
17615;BME280;8926;49.720;6.576;2023-04-26T04:14:12;99951.22;;;4.36;77.30
17615;BME280;8926;49.720;6.576;2023-04-26T04:16:37;99960.03;;;4.29;77.15
17615;BME280;8926;49.720;6.576;2023-04-26T04:19:03;99958.31;;;4.28;77.77
17615;BME280;8926;49.720;6.576;2023-04-26T04:21:28;99958.25;;;4.31;77.22
17615;BME280;8926;49.720;6.576;2023-04-26T04:23:53;99960.78;;;4.32;77.12
17615;BME280;8926;49.720;6.576;2023-04-26T04:26:19;99959.84;;;4.35;77.62
17615;BME280;8926;49.720;6.576;2023-04-26T04:28:45;99965.09;;;4.32;77.70
17615;BME280;8926;49.720;6.576;2023-04-26T04:31:11;99970.38;;;4.29;76.83
17615;BME280;8926;49.720;6.576;2023-04-26T04:33:37;99967.81;;;4.27;77.10
17615;BME280;8926;49.720;6.576;2023-04-26T04:36:03;99968.63;;;4.29;77.42
17615;BME280;8926;49.720;6.576;2023-04-26T04:38:28;99973.75;;;4.31;76.81
17615;BME280;8926;49.720;6.576;2023-04-26T04:40:55;99963.50;;;4.28;77.17
17615;BME280;8926;49.720;6.576;2023-04-26T04:43:21;99965.09;;;4.32;77.89
17615;BME280;8926;49.720;6.576;2023-04-26T04:45:52;99971.91;;;4.36;76.91
17615;BME280;8926;49.720;6.576;2023-04-26T04:48:18;99965.59;;;4.44;76.81
17615;BME280;8926;49.720;6.576;2023-04-26T04:50:44;99967.72;;;4.61;77.35
17615;BME280;8926;49.720;6.576;2023-04-26T04:53:20;99962.00;;;4.80;77.53
17615;BME280;8926;49.720;6.576;2023-04-26T04:55:45;99968.22;;;5.02;75.81
17615;BME280;8926;49.720;6.576;2023-04-26T04:58:10;99965.28;;;5.14;76.34
17615;BME280;8926;49.720;6.576;2023-04-26T05:00:38;99967.28;;;5.32;76.42
17615;BME280;8926;49.720;6.576;2023-04-26T05:03:03;99964.34;;;5.43;75.58
17615;BME280;8926;49.720;6.576;2023-04-26T05:05:29;99972.88;;;5.98;74.85
17615;BME280;8926;49.720;6.576;2023-04-26T05:07:55;99978.34;;;6.63;73.36
17615;BME280;8926;49.720;6.576;2023-04-26T05:10:20;99982.91;;;7.25;71.37
17615;BME280;8926;49.720;6.576;2023-04-26T05:12:45;99980.44;;;7.64;70.22
17615;BME280;8926;49.720;6.576;2023-04-26T05:15:11;99983.63;;;7.71;68.84
17615;BME280;8926;49.720;6.576;2023-04-26T05:17:36;99991.94;;;7.37;69.13
17615;BME280;8926;49.720;6.576;2023-04-26T05:20:02;99993.19;;;7.05;69.47
17615;BME280;8926;49.720;6.576;2023-04-26T05:22:31;99985.28;;;7.08;70.03
17615;BME280;8926;49.720;6.576;2023-04-26T05:24:56;99986.47;;;7.65;70.81
17615;BME280;8926;49.720;6.576;2023-04-26T05:27:21;99982.72;;;8.53;67.69
17615;BME280;8926;49.720;6.576;2023-04-26T05:29:46;99986.84;;;8.77;65.38
17615;BME280;8926;49.720;6.576;2023-04-26T05:32:12;99987.03;;;8.34;66.06
17615;BME280;8926;49.720;6.576;2023-04-26T05:34:37;99988.47;;;8.00;66.12
17615;BME280;8926;49.720;6.576;2023-04-26T05:37:03;99985.69;;;7.63;67.57
17615;BME280;8926;49.720;6.576;2023-04-26T05:39:28;99986.59;;;7.62;68.14
17615;BME280;8926;49.720;6.576;2023-04-26T05:41:54;99994.66;;;7.98;66.99
17615;BME280;8926;49.720;6.576;2023-04-26T05:44:19;99991.19;;;8.17;66.50
17615;BME280;8926;49.720;6.576;2023-04-26T05:46:45;99995.63;;;8.36;66.66
17615;BME280;8926;49.720;6.576;2023-04-26T05:49:10;100001.75;;;8.35;66.27
17615;BME280;8926;49.720;6.576;2023-04-26T05:51:36;99994.00;;;8.33;66.57
17615;BME280;8926;49.720;6.576;2023-04-26T05:54:01;99991.72;;;8.26;65.66
17615;BME280;8926;49.720;6.576;2023-04-26T05:56:26;99994.25;;;8.47;66.74
17615;BME280;8926;49.720;6.576;2023-04-26T05:58:52;99993.44;;;8.66;65.03
17615;BME280;8926;49.720;6.576;2023-04-26T06:01:17;99988.78;;;8.72;64.47
17615;BME280;8926;49.720;6.576;2023-04-26T06:03:43;99988.22;;;8.84;64.28
17615;BME280;8926;49.720;6.576;2023-04-26T06:06:09;99987.75;;;8.76;64.94
17615;BME280;8926;49.720;6.576;2023-04-26T06:08:35;99994.97;;;8.51;64.88
17615;BME280;8926;49.720;6.576;2023-04-26T06:11:00;99995.22;;;8.45;64.67
17615;BME280;8926;49.720;6.576;2023-04-26T06:13:25;99991.66;;;8.27;65.98
17615;BME280;8926;49.720;6.576;2023-04-26T06:15:52;99998.34;;;8.12;66.04
17615;BME280;8926;49.720;6.576;2023-04-26T06:18:17;99991.97;;;8.40;64.80
17615;BME280;8926;49.720;6.576;2023-04-26T06:20:42;99996.78;;;8.08;66.44
17615;BME280;8926;49.720;6.576;2023-04-26T06:23:08;100001.06;;;7.89;65.74
17615;BME280;8926;49.720;6.576;2023-04-26T06:25:33;99994.44;;;7.82;66.41
17615;BME280;8926;49.720;6.576;2023-04-26T06:27:59;99996.41;;;8.17;66.45
17615;BME280;8926;49.720;6.576;2023-04-26T06:30:24;100003.28;;;8.18;65.86
17615;BME280;8926;49.720;6.576;2023-04-26T06:32:50;100003.56;;;8.33;65.07
17615;BME280;8926;49.720;6.576;2023-04-26T06:35:15;99996.53;;;8.35;65.65
17615;BME280;8926;49.720;6.576;2023-04-26T06:37:40;99999.63;;;8.63;64.93
17615;BME280;8926;49.720;6.576;2023-04-26T06:40:06;99988.94;;;9.07;64.65
17615;BME280;8926;49.720;6.576;2023-04-26T06:42:32;99994.84;;;8.92;63.77
17615;BME280;8926;49.720;6.576;2023-04-26T06:44:57;99988.34;;;9.19;63.54
17615;BME280;8926;49.720;6.576;2023-04-26T06:47:23;99989.22;;;9.01;64.45
17615;BME280;8926;49.720;6.576;2023-04-26T06:49:48;99996.53;;;8.93;65.34
17615;BME280;8926;49.720;6.576;2023-04-26T06:52:13;99995.28;;;8.82;64.23
17615;BME280;8926;49.720;6.576;2023-04-26T06:54:38;99996.38;;;8.58;64.08
17615;BME280;8926;49.720;6.576;2023-04-26T06:57:04;99995.69;;;8.55;65.33
17615;BME280;8926;49.720;6.576;2023-04-26T06:59:29;99991.91;;;8.80;64.67
17615;BME280;8926;49.720;6.576;2023-04-26T07:01:54;99996.69;;;8.90;63.61
17615;BME280;8926;49.720;6.576;2023-04-26T07:04:19;99990.47;;;9.11;63.74
17615;BME280;8926;49.720;6.576;2023-04-26T07:06:45;99989.38;;;9.70;63.21
17615;BME280;8926;49.720;6.576;2023-04-26T07:09:11;99986.63;;;10.25;61.34
17615;BME280;8926;49.720;6.576;2023-04-26T07:11:37;99986.44;;;10.45;61.05
17615;BME280;8926;49.720;6.576;2023-04-26T07:14:03;99980.13;;;10.49;60.23
17615;BME280;8926;49.720;6.576;2023-04-26T07:16:29;99985.16;;;10.36;59.80
17615;BME280;8926;49.720;6.576;2023-04-26T07:18:55;99983.25;;;10.23;60.94
17615;BME280;8926;49.720;6.576;2023-04-26T07:21:24;99985.09;;;10.20;60.43
17615;BME280;8926;49.720;6.576;2023-04-26T07:23:54;99978.63;;;10.10;60.88
17615;BME280;8926;49.720;6.576;2023-04-26T07:26:21;99986.31;;;9.79;60.41
17615;BME280;8926;49.720;6.576;2023-04-26T07:28:46;99985.38;;;10.14;60.88
17615;BME280;8926;49.720;6.576;2023-04-26T07:31:12;99976.81;;;10.63;61.52
17615;BME280;8926;49.720;6.576;2023-04-26T07:33:37;99982.56;;;10.85;59.49
17615;BME280;8926;49.720;6.576;2023-04-26T07:36:03;99975.63;;;11.00;60.15
17615;BME280;8926;49.720;6.576;2023-04-26T07:38:29;99984.09;;;10.89;58.42
17615;BME280;8926;49.720;6.576;2023-04-26T07:40:54;99986.44;;;10.94;59.57
17615;BME280;8926;49.720;6.576;2023-04-26T07:43:20;99986.25;;;10.81;59.66
17615;BME280;8926;49.720;6.576;2023-04-26T07:45:46;99988.44;;;10.73;59.72
17615;BME280;8926;49.720;6.576;2023-04-26T07:48:11;99973.06;;;10.51;60.69
17615;BME280;8926;49.720;6.576;2023-04-26T07:50:37;99974.66;;;10.53;59.64
17615;BME280;8926;49.720;6.576;2023-04-26T07:53:02;99975.59;;;10.68;59.10
17615;BME280;8926;49.720;6.576;2023-04-26T07:55:28;99969.06;;;10.93;59.33
17615;BME280;8926;49.720;6.576;2023-04-26T07:57:53;99967.88;;;11.30;57.80
17615;BME280;8926;49.720;6.576;2023-04-26T08:00:18;99965.13;;;11.63;57.49
17615;BME280;8926;49.720;6.576;2023-04-26T08:02:46;99964.09;;;11.81;57.39
17615;BME280;8926;49.720;6.576;2023-04-26T08:05:12;99961.34;;;12.12;56.12
17615;BME280;8926;49.720;6.576;2023-04-26T08:07:38;99960.06;;;12.19;56.32
17615;BME280;8926;49.720;6.576;2023-04-26T08:10:03;99962.84;;;12.31;56.45
17615;BME280;8926;49.720;6.576;2023-04-26T08:12:29;99965.69;;;12.42;56.05
17615;BME280;8926;49.720;6.576;2023-04-26T08:14:54;99969.41;;;12.38;56.19
17615;BME280;8926;49.720;6.576;2023-04-26T08:17:19;99962.94;;;12.29;55.28
17615;BME280;8926;49.720;6.576;2023-04-26T08:19:45;99969.78;;;12.32;52.77
17615;BME280;8926;49.720;6.576;2023-04-26T08:22:10;99964.34;;;12.35;54.18
17615;BME280;8926;49.720;6.576;2023-04-26T08:24:35;99965.19;;;12.49;54.79
17615;BME280;8926;49.720;6.576;2023-04-26T08:27:01;99964.72;;;12.57;54.69
17615;BME280;8926;49.720;6.576;2023-04-26T08:29:26;99956.88;;;12.43;54.76
17615;BME280;8926;49.720;6.576;2023-04-26T08:31:52;99951.16;;;12.36;55.24
17615;BME280;8926;49.720;6.576;2023-04-26T08:34:18;99957.13;;;12.24;55.40
17615;BME280;8926;49.720;6.576;2023-04-26T08:36:43;99962.47;;;12.08;55.17
17615;BME280;8926;49.720;6.576;2023-04-26T08:39:09;99956.75;;;12.02;54.83
17615;BME280;8926;49.720;6.576;2023-04-26T08:41:41;99941.88;;;12.02;54.80
17615;BME280;8926;49.720;6.576;2023-04-26T08:44:07;99957.22;;;12.22;55.45
17615;BME280;8926;49.720;6.576;2023-04-26T08:46:46;99949.56;;;12.48;53.81
17615;BME280;8926;49.720;6.576;2023-04-26T08:49:30;99946.53;;;12.97;53.92
17615;BME280;8926;49.720;6.576;2023-04-26T08:51:56;99951.13;;;13.34;52.89
17615;BME280;8926;49.720;6.576;2023-04-26T08:54:23;99947.91;;;13.16;51.29
17615;BME280;8926;49.720;6.576;2023-04-26T08:56:50;99946.72;;;12.94;51.93
17615;BME280;8926;49.720;6.576;2023-04-26T08:59:16;99947.47;;;12.81;51.67
17615;BME280;8926;49.720;6.576;2023-04-26T09:01:43;99946.16;;;12.74;52.42
17615;BME280;8926;49.720;6.576;2023-04-26T09:04:08;99939.47;;;12.70;53.88
17615;BME280;8926;49.720;6.576;2023-04-26T09:06:34;99929.72;;;12.72;53.64
17615;BME280;8926;49.720;6.576;2023-04-26T09:09:01;99930.38;;;12.62;52.80
17615;BME280;8926;49.720;6.576;2023-04-26T09:11:29;99929.25;;;12.66;53.73
17615;BME280;8926;49.720;6.576;2023-04-26T09:13:55;99924.34;;;12.74;53.23
17615;BME280;8926;49.720;6.576;2023-04-26T09:16:34;99922.56;;;12.88;52.85
17615;BME280;8926;49.720;6.576;2023-04-26T09:18:59;99924.47;;;13.13;51.29
17615;BME280;8926;49.720;6.576;2023-04-26T09:21:25;99916.22;;;13.46;52.55
17615;BME280;8926;49.720;6.576;2023-04-26T09:23:59;99917.13;;;13.85;51.76
17615;BME280;8926;49.720;6.576;2023-04-26T09:26:28;99922.28;;;14.24;50.45
17615;BME280;8926;49.720;6.576;2023-04-26T09:29:16;99925.22;;;14.58;48.89
17615;BME280;8926;49.720;6.576;2023-04-26T09:31:43;99919.72;;;14.61;45.79
17615;BME280;8926;49.720;6.576;2023-04-26T09:34:10;99912.09;;;14.82;45.78
17615;BME280;8926;49.720;6.576;2023-04-26T09:36:49;99902.72;;;15.14;45.03
17615;BME280;8926;49.720;6.576;2023-04-26T09:39:28;99896.66;;;15.49;43.14
17615;BME280;8926;49.720;6.576;2023-04-26T09:41:56;99895.47;;;15.77;43.42
17615;BME280;8926;49.720;6.576;2023-04-26T09:44:22;99890.59;;;16.06;42.47
17615;BME280;8926;49.720;6.576;2023-04-26T09:49:26;99896.00;;;16.15;44.14
17615;BME280;8926;49.720;6.576;2023-04-26T09:52:04;99891.22;;;16.09;41.81
17615;BME280;8926;49.720;6.576;2023-04-26T09:54:41;99884.28;;;16.31;40.19
17615;BME280;8926;49.720;6.576;2023-04-26T09:57:07;99884.50;;;16.27;41.04
17615;BME280;8926;49.720;6.576;2023-04-26T09:59:46;99886.41;;;16.25;39.95
17615;BME280;8926;49.720;6.576;2023-04-26T10:02:26;99882.72;;;16.06;39.26
17615;BME280;8926;49.720;6.576;2023-04-26T10:04:54;99882.41;;;15.75;40.87
17615;BME280;8926;49.720;6.576;2023-04-26T10:07:22;99877.00;;;15.66;39.55
17615;BME280;8926;49.720;6.576;2023-04-26T10:09:48;99878.66;;;15.67;40.46
17615;BME280;8926;49.720;6.576;2023-04-26T10:12:15;99877.00;;;15.66;39.93
17615;BME280;8926;49.720;6.576;2023-04-26T10:14:43;99871.25;;;15.72;39.20
17615;BME280;8926;49.720;6.576;2023-04-26T10:17:09;99873.84;;;15.60;39.81
17615;BME280;8926;49.720;6.576;2023-04-26T10:19:36;99870.53;;;15.70;37.92
17615;BME280;8926;49.720;6.576;2023-04-26T10:22:25;99846.03;;;15.80;38.50
17615;BME280;8926;49.720;6.576;2023-04-26T10:24:53;99849.97;;;15.97;38.25
17615;BME280;8926;49.720;6.576;2023-04-26T10:33:10;99844.13;;;16.05;37.25
17615;BME280;8926;49.720;6.576;2023-04-26T10:35:58;99845.69;;;16.29;34.88
17615;BME280;8926;49.720;6.576;2023-04-26T10:38:24;99836.06;;;16.40;35.80
17615;BME280;8926;49.720;6.576;2023-04-26T10:40:50;99840.16;;;16.33;36.48
17615;BME280;8926;49.720;6.576;2023-04-26T10:45:44;99827.63;;;16.79;36.07
17615;BME280;8926;49.720;6.576;2023-04-26T10:48:27;99832.38;;;16.96;34.29
17615;BME280;8926;49.720;6.576;2023-04-26T10:58:48;99817.50;;;16.41;33.38
17615;BME280;8926;49.720;6.576;2023-04-26T11:01:31;99813.03;;;16.64;33.57
17615;BME280;8926;49.720;6.576;2023-04-26T11:06:25;99808.84;;;17.05;32.97
17615;BME280;8926;49.720;6.576;2023-04-26T11:08:52;99806.19;;;17.05;33.42
17615;BME280;8926;49.720;6.576;2023-04-26T11:11:18;99791.88;;;16.86;33.57
17615;BME280;8926;49.720;6.576;2023-04-26T11:13:44;99789.44;;;16.94;33.59
17615;BME280;8926;49.720;6.576;2023-04-26T11:16:12;99793.97;;;17.04;32.33
17615;BME280;8926;49.720;6.576;2023-04-26T11:18:39;99790.34;;;17.05;34.39
17615;BME280;8926;49.720;6.576;2023-04-26T11:21:05;99793.59;;;17.29;32.53
17615;BME280;8926;49.720;6.576;2023-04-26T11:23:31;99789.69;;;16.91;32.61
17615;BME280;8926;49.720;6.576;2023-04-26T11:26:02;99789.03;;;16.67;32.67
17615;BME280;8926;49.720;6.576;2023-04-26T11:28:31;99785.97;;;16.51;33.98
17615;BME280;8926;49.720;6.576;2023-04-26T11:30:57;99785.72;;;16.54;33.37
17615;BME280;8926;49.720;6.576;2023-04-26T11:33:23;99791.97;;;16.42;33.10
17615;BME280;8926;49.720;6.576;2023-04-26T11:35:53;99785.66;;;16.33;33.99
17615;BME280;8926;49.720;6.576;2023-04-26T11:38:22;99783.09;;;16.43;33.47
17615;BME280;8926;49.720;6.576;2023-04-26T11:41:04;99783.56;;;16.91;33.32
17615;BME280;8926;49.720;6.576;2023-04-26T11:43:38;99770.22;;;17.24;33.57
17615;BME280;8926;49.720;6.576;2023-04-26T11:46:06;99771.56;;;17.60;33.13
17615;BME280;8926;49.720;6.576;2023-04-26T11:48:33;99761.88;;;17.71;31.67
17615;BME280;8926;49.720;6.576;2023-04-26T11:51:00;99767.56;;;17.45;30.72
17615;BME280;8926;49.720;6.576;2023-04-26T11:53:40;99761.91;;;16.87;30.35
17615;BME280;8926;49.720;6.576;2023-04-26T11:56:16;99767.94;;;16.67;31.06
17615;BME280;8926;49.720;6.576;2023-04-26T11:58:44;99774.06;;;17.00;31.13
17615;BME280;8926;49.720;6.576;2023-04-26T12:01:09;99767.69;;;17.23;32.01
17615;BME280;8926;49.720;6.576;2023-04-26T12:03:34;99768.50;;;17.14;31.26
17615;BME280;8926;49.720;6.576;2023-04-26T12:06:02;99775.44;;;17.15;29.94
17615;BME280;8926;49.720;6.576;2023-04-26T12:08:28;99763.97;;;17.05;29.33
17615;BME280;8926;49.720;6.576;2023-04-26T12:10:53;99765.13;;;17.12;31.12
17615;BME280;8926;49.720;6.576;2023-04-26T12:13:19;99765.78;;;17.25;31.15
17615;BME280;8926;49.720;6.576;2023-04-26T12:15:45;99763.84;;;17.27;29.97
17615;BME280;8926;49.720;6.576;2023-04-26T12:18:11;99756.63;;;17.29;30.94
17615;BME280;8926;49.720;6.576;2023-04-26T12:20:38;99757.13;;;17.23;30.88
17615;BME280;8926;49.720;6.576;2023-04-26T12:23:13;99761.44;;;17.24;30.45
17615;BME280;8926;49.720;6.576;2023-04-26T12:25:39;99759.59;;;17.15;29.62
17615;BME280;8926;49.720;6.576;2023-04-26T12:28:10;99756.25;;;17.13;30.75
17615;BME280;8926;49.720;6.576;2023-04-26T12:30:39;99759.13;;;17.30;32.15
17615;BME280;8926;49.720;6.576;2023-04-26T12:33:04;99763.66;;;17.40;29.71
17615;BME280;8926;49.720;6.576;2023-04-26T12:35:30;99755.72;;;17.19;30.62
17615;BME280;8926;49.720;6.576;2023-04-26T12:37:56;99757.75;;;16.94;31.42
17615;BME280;8926;49.720;6.576;2023-04-26T12:40:25;99764.72;;;16.95;31.62
17615;BME280;8926;49.720;6.576;2023-04-26T12:42:51;99761.22;;;16.74;31.42
17615;BME280;8926;49.720;6.576;2023-04-26T12:45:17;99754.31;;;16.51;30.61
17615;BME280;8926;49.720;6.576;2023-04-26T12:47:47;99761.41;;;16.39;31.39
17615;BME280;8926;49.720;6.576;2023-04-26T12:50:12;99759.88;;;16.25;30.86
17615;BME280;8926;49.720;6.576;2023-04-26T12:52:39;99762.28;;;16.17;30.64
17615;BME280;8926;49.720;6.576;2023-04-26T12:55:07;99760.72;;;16.26;31.49
17615;BME280;8926;49.720;6.576;2023-04-26T12:57:35;99759.13;;;16.46;31.87
17615;BME280;8926;49.720;6.576;2023-04-26T13:00:02;99756.47;;;16.57;31.70
17615;BME280;8926;49.720;6.576;2023-04-26T13:02:28;99762.94;;;16.53;32.99
17615;BME280;8926;49.720;6.576;2023-04-26T13:04:53;99757.63;;;16.64;33.52
17615;BME280;8926;49.720;6.576;2023-04-26T13:07:19;99757.84;;;16.72;33.66
17615;BME280;8926;49.720;6.576;2023-04-26T13:09:44;99759.28;;;16.76;32.66
17615;BME280;8926;49.720;6.576;2023-04-26T13:12:09;99758.84;;;16.60;33.36
17615;BME280;8926;49.720;6.576;2023-04-26T13:14:35;99752.63;;;16.50;33.78
17615;BME280;8926;49.720;6.576;2023-04-26T13:17:03;99753.34;;;16.52;34.20
17615;BME280;8926;49.720;6.576;2023-04-26T13:19:28;99746.03;;;16.55;33.92
17615;BME280;8926;49.720;6.576;2023-04-26T13:21:54;99751.91;;;16.59;34.24
17615;BME280;8926;49.720;6.576;2023-04-26T13:24:19;99739.19;;;16.64;34.16
17615;BME280;8926;49.720;6.576;2023-04-26T13:26:44;99749.47;;;16.67;34.69
17615;BME280;8926;49.720;6.576;2023-04-26T13:29:10;99739.75;;;16.36;33.85
17615;BME280;8926;49.720;6.576;2023-04-26T13:31:35;99738.97;;;16.45;34.62
17615;BME280;8926;49.720;6.576;2023-04-26T13:34:02;99734.16;;;16.61;34.31
17615;BME280;8926;49.720;6.576;2023-04-26T13:36:27;99731.88;;;16.56;34.37